Monte Carmelo, Brazil
Current Conditions -  °F | °C
As of 6:11 AM on Friday 28 Nov 2014 (Local Time) from SBUL Reporting Station
Broken Clouds Broken Clouds  
Wind Chill: 68°   Ceiling: 300
Heat Index: 68°   Visibility: 6mi
Dew Point: 66°   Wind: 5mph
Humidity: 94%   Direction: 350°N
Pressure: 30"   Gusts: NA
Location:  18.72°S, 47.5°W
Report Text: SBUL 280811Z 35004KT 9999 4000N BKN003 BKN100 20/19 Q1016
Loading
Personal Weather Stations






























Interactive Weather Map New forecast layout! Learn more

10-Day Weather Forecast

Advertisements
Track Severe Weather on mobile